Time;durP1;ratioP1;P1;durP2;ratioP2;P2;SDS_P1;SDS_P2;PMS_P1;PMS_P2;Temp;Humidity;BMP_temperature;BMP_pressure;BME280_temperature;BME280_humidity;BME280_pressure;Samples;Min_cycle;Max_cycle;Signal;HPM_P1;HPM_P2
2024/04/22 00:00:44;;;;;;;2.20;2.00;;;3.70;99.90;;;;;;6529040;22;20441;-68
2024/04/22 00:03:13;;;;;;;5.93;1.87;;;3.60;99.90;;;;;;6528838;22;20571;-68
2024/04/22 00:05:39;;;;;;;4.37;2.00;;;3.60;99.90;;;;;;6528515;21;20831;-69
2024/04/22 00:08:08;;;;;;;2.87;1.50;;;3.60;99.90;;;;;;6529771;22;20456;-67
2024/04/22 00:10:36;;;;;;;3.87;2.00;;;3.50;99.90;;;;;;6529741;22;20898;-68
2024/04/22 00:13:05;;;;;;;2.60;1.50;;;3.50;99.90;;;;;;6528861;22;20594;-66
2024/04/22 00:15:31;;;;;;;3.63;2.70;;;3.50;99.90;;;;;;6526477;21;20457;-68
2024/04/22 00:18:00;;;;;;;2.17;1.97;;;3.40;99.90;;;;;;6527825;22;20452;-67
2024/04/22 00:20:26;;;;;;;6.10;3.53;;;3.40;99.90;;;;;;6528014;22;20500;-68
2024/04/22 00:22:54;;;;;;;1.97;1.50;;;3.40;99.90;;;;;;6529561;22;20630;-68
2024/04/22 00:25:20;;;;;;;1.60;1.50;;;3.40;99.90;;;;;;6528059;21;20521;-68
2024/04/22 00:27:51;;;;;;;5.30;2.03;;;3.40;99.90;;;;;;6529505;22;20464;-68
2024/04/22 00:30:18;;;;;;;2.50;1.47;;;3.40;99.90;;;;;;6529409;22;20464;-67
2024/04/22 00:32:47;;;;;;;1.63;1.23;;;3.40;99.90;;;;;;6530202;22;20464;-67
2024/04/22 00:35:13;;;;;;;3.40;1.90;;;3.40;99.90;;;;;;6529599;21;20468;-67
2024/04/22 00:37:42;;;;;;;1.70;1.27;;;3.40;99.90;;;;;;6530368;22;20460;-68
2024/04/22 00:40:09;;;;;;;1.90;1.37;;;3.40;99.90;;;;;;6529002;22;20464;-68
2024/04/22 00:42:42;;;;;;;2.00;1.13;;;3.40;99.90;;;;;;6529859;22;21087;-67
2024/04/22 00:45:11;;;;;;;2.60;1.57;;;3.40;99.90;;;;;;6527010;21;20584;-68
2024/04/22 00:47:40;;;;;;;1.53;1.13;;;3.40;99.90;;;;;;6528659;22;20468;-68
2024/04/22 00:50:07;;;;;;;2.07;1.43;;;3.40;99.90;;;;;;6528191;22;20460;-69
2024/04/22 00:52:37;;;;;;;2.80;1.40;;;3.40;99.90;;;;;;6527441;22;20464;-68
2024/04/22 00:55:04;;;;;;;4.10;2.13;;;3.30;99.90;;;;;;6525568;21;21107;-68
2024/04/22 00:57:34;;;;;;;2.60;1.53;;;3.20;99.90;;;;;;6526920;22;20452;-68
2024/04/22 01:00:00;;;;;;;4.07;2.50;;;3.20;99.90;;;;;;6526330;22;20444;-67
2024/04/22 01:02:32;;;;;;;3.70;1.90;;;3.10;99.90;;;;;;6526569;22;20624;-67
2024/04/22 01:04:59;;;;;;;3.00;1.47;;;3.00;99.90;;;;;;6525205;21;20464;-68
2024/04/22 01:07:29;;;;;;;2.20;1.63;;;3.00;99.90;;;;;;6526194;22;20465;-68
2024/04/22 01:09:59;;;;;;;5.73;2.60;;;3.00;99.90;;;;;;6525802;22;20495;-67
2024/04/22 01:12:28;;;;;;;3.87;1.40;;;3.00;99.90;;;;;;6526999;22;20456;-67
2024/04/22 01:14:54;;;;;;;6.00;1.50;;;3.00;99.90;;;;;;6527559;21;20779;-67
2024/04/22 01:17:22;;;;;;;3.10;1.73;;;3.00;99.90;;;;;;6528569;22;20460;-67
2024/04/22 01:19:54;;;;;;;2.50;1.50;;;2.90;99.90;;;;;;6528827;22;20452;-67
2024/04/22 01:22:22;;;;;;;1.77;1.50;;;2.90;99.90;;;;;;6529196;22;20460;-68
2024/04/22 01:24:51;;;;;;;5.93;2.30;;;2.90;99.90;;;;;;6527309;21;20469;-67
2024/04/22 01:27:17;;;;;;;3.40;2.03;;;2.90;99.90;;;;;;6528837;22;20501;-67
2024/04/22 01:29:46;;;;;;;4.40;1.87;;;3.00;99.90;;;;;;6528002;22;20512;-67
2024/04/22 01:32:12;;;;;;;2.13;1.70;;;2.90;99.90;;;;;;6528431;22;20452;-67
2024/04/22 01:34:40;;;;;;;6.20;1.93;;;2.90;99.90;;;;;;6528899;21;20558;-67
2024/04/22 01:37:06;;;;;;;3.00;2.17;;;2.90;99.90;;;;;;6530527;22;20505;-67
2024/04/22 01:39:37;;;;;;;3.53;2.50;;;2.80;99.90;;;;;;6532724;22;20452;-67
2024/04/22 01:42:04;;;;;;;3.20;2.30;;;2.80;99.90;;;;;;6532117;22;20498;-67
2024/04/22 01:44:33;;;;;;;2.47;1.97;;;2.80;99.90;;;;;;6528440;21;20468;-67
2024/04/22 01:46:59;;;;;;;4.17;2.20;;;2.90;99.90;;;;;;6528855;22;20473;-68
2024/04/22 01:49:27;;;;;;;2.83;1.80;;;2.90;99.90;;;;;;6528104;22;20524;-66
2024/04/22 01:51:53;;;;;;;1.83;1.57;;;2.90;99.90;;;;;;6528610;22;21080;-67
2024/04/22 01:54:22;;;;;;;8.20;2.30;;;2.80;99.90;;;;;;6528586;21;20459;-67
2024/04/22 01:56:50;;;;;;;2.37;1.40;;;2.80;99.90;;;;;;6527837;22;20440;-67
2024/04/22 01:59:21;;;;;;;3.40;2.07;;;2.90;99.90;;;;;;6527764;22;21078;-66
2024/04/22 02:01:49;;;;;;;5.00;1.40;;;2.90;99.90;;;;;;6528012;22;20457;-67
2024/04/22 02:04:15;;;;;;;1.83;1.63;;;2.90;99.90;;;;;;6526916;21;20464;-67
2024/04/22 02:06:47;;;;;;;2.30;1.60;;;2.90;99.90;;;;;;6527809;22;20511;-67
2024/04/22 02:09:13;;;;;;;5.40;2.30;;;2.80;99.90;;;;;;6527613;22;20464;-68
2024/04/22 02:11:41;;;;;;;14.87;2.60;;;2.80;99.90;;;;;;6528528;22;20512;-67
2024/04/22 02:14:10;;;;;;;4.17;2.40;;;2.70;99.90;;;;;;6528566;21;20525;-67
2024/04/22 02:16:38;;;;;;;7.30;2.83;;;2.70;99.90;;;;;;6527569;22;20585;-67
2024/04/22 02:19:04;;;;;;;7.13;2.70;;;2.60;99.90;;;;;;6528016;22;21020;-68
2024/04/22 02:21:33;;;;;;;4.30;3.37;;;2.60;99.90;;;;;;6527999;22;20452;-68
2024/04/22 02:23:59;;;;;;;6.10;2.33;;;2.60;99.90;;;;;;6527132;21;20535;-67
2024/04/22 02:26:27;;;;;;;4.40;2.50;;;2.60;99.90;;;;;;6527043;22;20456;-67
2024/04/22 02:28:53;;;;;;;11.43;3.77;;;2.60;99.90;;;;;;6527340;22;20858;-67
2024/04/22 02:31:25;;;;;;;6.00;2.27;;;2.60;99.90;;;;;;6528175;22;20944;-67
2024/04/22 02:33:50;;;;;;;4.10;2.17;;;2.60;99.90;;;;;;6528111;21;20460;-68
2024/04/22 02:36:19;;;;;;;4.13;2.30;;;2.60;99.90;;;;;;6526698;22;20500;-68
2024/04/22 02:38:45;;;;;;;3.40;2.43;;;2.50;99.90;;;;;;6527274;22;20505;-67
2024/04/22 02:41:13;;;;;;;3.33;2.20;;;2.50;99.90;;;;;;6527230;22;20456;-68
2024/04/22 02:43:39;;;;;;;7.77;3.57;;;2.50;99.90;;;;;;6527169;21;20571;-67
2024/04/22 02:46:08;;;;;;;8.53;2.33;;;2.50;99.90;;;;;;6526808;22;21015;-68
2024/04/22 02:48:36;;;;;;;4.10;1.97;;;2.50;99.90;;;;;;6527044;22;20505;-67
2024/04/22 02:51:05;;;;;;;3.17;2.63;;;2.50;99.90;;;;;;6527096;22;20528;-67
2024/04/22 02:53:31;;;;;;;5.33;2.20;;;2.40;99.90;;;;;;6527342;21;20452;-67
2024/04/22 02:56:00;;;;;;;3.60;2.20;;;2.40;99.90;;;;;;6526567;22;20512;-68
2024/04/22 02:58:26;;;;;;;11.80;2.67;;;2.40;99.90;;;;;;6530090;22;20445;-67
2024/04/22 03:00:54;;;;;;;3.90;1.97;;;2.50;99.90;;;;;;6528897;22;20517;-67
2024/04/22 03:03:20;;;;;;;4.00;1.90;;;2.40;99.90;;;;;;6527563;21;20505;-67
2024/04/22 03:05:51;;;;;;;6.23;2.00;;;2.30;99.90;;;;;;6526318;22;20541;-68
2024/04/22 03:08:17;;;;;;;5.37;2.00;;;2.40;99.90;;;;;;6527004;22;20457;-68
2024/04/22 03:10:46;;;;;;;5.67;2.37;;;2.40;99.90;;;;;;6527349;22;20504;-68
2024/04/22 03:13:12;;;;;;;8.90;3.43;;;2.40;99.90;;;;;;6527412;22;20509;-66
2024/04/22 03:15:41;;;;;;;4.07;1.70;;;2.40;99.90;;;;;;6526055;21;20477;-67
2024/04/22 03:18:07;;;;;;;3.73;2.13;;;2.40;99.90;;;;;;6527584;22;20500;-67
2024/04/22 03:20:38;;;;;;;5.73;2.50;;;2.30;99.90;;;;;;6527261;22;20502;-67
2024/04/22 03:23:07;;;;;;;4.20;1.97;;;2.30;99.90;;;;;;6527270;22;20464;-67
2024/04/22 03:25:35;;;;;;;5.93;3.00;;;2.30;99.90;;;;;;6525795;21;20981;-67
2024/04/22 03:28:01;;;;;;;2.50;1.87;;;2.40;99.90;;;;;;6526760;22;20449;-68
2024/04/22 03:30:30;;;;;;;6.63;2.13;;;2.30;99.90;;;;;;6526962;22;20961;-68
2024/04/22 03:32:55;;;;;;;4.80;2.50;;;2.30;99.90;;;;;;6527048;22;20513;-68
2024/04/22 03:35:24;;;;;;;4.07;2.23;;;2.30;99.90;;;;;;6525283;21;20524;-68
2024/04/22 03:37:53;;;;;;;3.43;1.60;;;2.30;99.90;;;;;;6527028;22;20295;-67
2024/04/22 03:40:24;;;;;;;5.07;2.70;;;2.40;99.90;;;;;;6526656;22;20540;-67
2024/04/22 03:42:52;;;;;;;2.80;1.80;;;2.40;99.90;;;;;;6526942;22;20468;-67
2024/04/22 03:45:18;;;;;;;2.80;1.70;;;2.40;99.90;;;;;;6526136;21;20815;-68
2024/04/22 03:50:31;;;;;;;2.83;1.80;;;2.40;99.90;;;;;;6530402;22;20519;-67
2024/04/22 03:52:57;;;;;;;2.90;1.70;;;2.40;99.90;;;;;;6526573;22;20491;-66
2024/04/22 03:55:29;;;;;;;5.23;2.27;;;2.40;99.90;;;;;;6525457;21;20524;-67
2024/04/22 03:57:57;;;;;;;2.80;1.80;;;2.40;99.90;;;;;;6526937;22;20457;-66
2024/04/22 04:00:26;;;;;;;3.20;2.10;;;2.40;99.90;;;;;;6526654;22;20493;-67
2024/04/22 04:02:52;;;;;;;3.53;2.30;;;2.30;99.90;;;;;;6527622;22;20494;-67
2024/04/22 04:05:20;;;;;;;4.50;2.60;;;2.30;99.90;;;;;;6526348;21;20469;-67
2024/04/22 04:07:46;;;;;;;9.43;2.30;;;2.30;99.90;;;;;;6526782;22;20509;-67
2024/04/22 04:10:15;;;;;;;5.10;3.17;;;2.20;99.90;;;;;;6526794;22;20464;-67
2024/04/22 04:12:43;;;;;;;7.43;2.60;;;2.30;99.90;;;;;;6526837;22;20252;-67
2024/04/22 04:15:12;;;;;;;5.07;2.07;;;2.20;99.90;;;;;;6525449;21;20475;-67
2024/04/22 04:17:38;;;;;;;4.23;2.20;;;2.20;99.90;;;;;;6526350;22;20468;-66
2024/04/22 04:20:07;;;;;;;4.83;2.67;;;2.30;99.90;;;;;;6526161;22;20512;-68
2024/04/22 04:22:33;;;;;;;5.00;2.70;;;2.30;99.90;;;;;;6526513;22;20468;-68
2024/04/22 04:25:01;;;;;;;6.93;2.90;;;2.30;99.90;;;;;;6524893;21;20568;-68
2024/04/22 04:27:27;;;;;;;8.70;3.00;;;2.30;99.90;;;;;;6526119;21;20503;-67
2024/04/22 04:29:59;;;;;;;4.90;2.30;;;2.30;99.90;;;;;;6526052;22;20460;-68
2024/04/22 04:32:24;;;;;;;6.03;2.70;;;2.40;99.90;;;;;;6527065;22;20603;-68
2024/04/22 04:34:54;;;;;;;5.20;2.03;;;2.40;99.90;;;;;;6526089;21;20795;-66
2024/04/22 04:37:20;;;;;;;6.50;2.40;;;2.40;99.90;;;;;;6527837;22;20500;-67
2024/04/22 04:39:48;;;;;;;4.93;2.67;;;2.50;99.90;;;;;;6528524;22;20453;-67
2024/04/22 04:42:14;;;;;;;3.33;2.27;;;2.50;99.90;;;;;;6528530;22;20452;-67
2024/04/22 04:44:43;;;;;;;5.13;2.10;;;2.60;99.90;;;;;;6526882;21;20585;-67
2024/04/22 04:47:11;;;;;;;6.07;3.10;;;2.60;99.90;;;;;;6528037;22;20461;-68
2024/04/22 04:49:40;;;;;;;4.53;2.00;;;2.60;99.90;;;;;;6526733;22;20527;-66
2024/04/22 04:52:06;;;;;;;3.30;2.53;;;2.70;99.90;;;;;;6527079;22;20456;-68
2024/04/22 04:54:35;;;;;;;5.10;2.33;;;2.70;99.90;;;;;;6525158;21;20878;-68
2024/04/22 04:57:01;;;;;;;3.83;3.20;;;2.70;99.90;;;;;;6526061;22;20457;-69
2024/04/22 04:59:29;;;;;;;3.50;1.80;;;2.70;99.90;;;;;;6526346;22;21040;-68
2024/04/22 05:01:56;;;;;;;7.60;2.33;;;2.70;99.90;;;;;;6526514;22;20453;-66
2024/04/22 05:04:27;;;;;;;9.13;2.93;;;2.80;99.90;;;;;;6524928;21;21021;-68
2024/04/22 05:06:53;;;;;;;8.83;3.30;;;2.80;99.90;;;;;;6527112;22;20460;-67
2024/04/22 05:09:22;;;;;;;6.10;3.30;;;2.90;99.90;;;;;;6528113;22;20930;-68
2024/04/22 05:11:48;;;;;;;3.23;2.43;;;2.90;99.90;;;;;;6527379;22;20491;-68
2024/04/22 05:14:16;;;;;;;5.53;2.90;;;3.00;99.90;;;;;;6525676;21;20464;-67
2024/04/22 05:16:44;;;;;;;4.27;2.00;;;3.00;99.90;;;;;;6526085;22;20452;-67
2024/04/22 05:19:13;;;;;;;10.20;3.13;;;3.10;99.90;;;;;;6526583;22;20445;-67
2024/04/22 05:21:42;;;;;;;10.90;3.00;;;3.10;99.90;;;;;;6526263;22;20449;-66
2024/04/22 05:24:12;;;;;;;14.20;3.53;;;3.20;99.90;;;;;;6525652;21;20525;-66
2024/04/22 05:26:38;;;;;;;8.20;3.60;;;3.20;99.90;;;;;;6526064;22;20452;-67
2024/04/22 05:29:07;;;;;;;6.30;3.23;;;3.30;99.90;;;;;;6526280;22;20453;-67
2024/04/22 05:31:32;;;;;;;3.83;2.03;;;3.30;99.90;;;;;;6526360;22;20930;-69
2024/04/22 05:36:48;;;;;;;6.43;2.43;;;3.40;99.90;;;;;;6530559;22;20487;-67
2024/04/22 05:39:17;;;;;;;8.87;3.30;;;3.50;99.90;;;;;;6525911;21;20500;-67
2024/04/22 05:41:46;;;;;;;4.07;2.50;;;3.60;99.90;;;;;;6526179;22;20456;-68
2024/04/22 05:44:15;;;;;;;5.77;3.03;;;3.70;99.90;;;;;;6526717;21;20461;-68
2024/04/22 05:46:44;;;;;;;5.40;2.53;;;3.70;99.90;;;;;;6526633;22;20464;-67
2024/04/22 05:49:13;;;;;;;10.73;3.80;;;3.80;99.90;;;;;;6526941;22;20456;-67
2024/04/22 05:51:41;;;;;;;8.63;3.27;;;3.80;99.90;;;;;;6527483;22;20449;-66
2024/04/22 05:54:10;;;;;;;5.30;2.80;;;3.90;99.90;;;;;;6525831;21;20461;-67
2024/04/22 05:56:39;;;;;;;4.43;2.57;;;4.00;99.90;;;;;;6526076;22;20452;-68
2024/04/22 05:59:06;;;;;;;4.20;2.60;;;4.10;99.90;;;;;;6526484;22;20448;-68
2024/04/22 06:01:35;;;;;;;3.10;2.00;;;4.10;99.90;;;;;;6529304;22;20461;-67
2024/04/22 06:04:02;;;;;;;2.60;2.00;;;4.20;99.90;;;;;;6528175;21;20793;-67
2024/04/22 06:06:31;;;;;;;7.90;2.70;;;4.30;99.90;;;;;;6527910;22;20536;-68
2024/04/22 06:08:56;;;;;;;4.63;2.00;;;4.30;99.90;;;;;;6528674;22;20468;-67
2024/04/22 06:11:28;;;;;;;6.67;2.57;;;4.40;99.90;;;;;;6528141;22;20516;-68
2024/04/22 06:13:54;;;;;;;8.10;3.20;;;4.40;99.90;;;;;;6528254;21;20456;-68
2024/04/22 06:16:22;;;;;;;14.20;3.03;;;4.50;99.90;;;;;;6529010;22;20500;-67
2024/04/22 06:18:49;;;;;;;17.70;2.77;;;4.50;99.90;;;;;;6532910;22;20456;-69
2024/04/22 06:21:26;;;;;;;21.10;2.90;;;4.60;99.90;;;;;;6530256;22;20580;-68
2024/04/22 06:23:58;;;;;;;30.37;5.57;;;4.50;99.90;;;;;;6530492;21;20566;-68
2024/04/22 06:26:38;;;;;;;9.47;3.03;;;4.60;99.90;;;;;;6529643;22;20891;-68
2024/04/22 06:29:10;;;;;;;6.47;3.47;;;4.60;99.90;;;;;;6528192;22;20512;-68
2024/04/22 06:31:38;;;;;;;11.63;3.70;;;4.70;99.90;;;;;;6528325;22;20515;-69
2024/04/22 06:34:07;;;;;;;25.43;4.23;;;4.70;99.90;;;;;;6527458;21;20911;-68
2024/04/22 06:36:33;;;;;;;7.53;2.57;;;4.80;99.90;;;;;;6526313;22;21041;-67
2024/04/22 06:39:01;;;;;;;5.10;3.00;;;4.80;99.90;;;;;;6527650;22;20460;-68
2024/04/22 06:41:30;;;;;;;4.10;2.73;;;4.90;99.90;;;;;;6527429;22;20456;-69
2024/04/22 06:43:59;;;;;;;3.80;2.40;;;4.90;99.90;;;;;;6527348;21;20516;-67
2024/04/22 06:46:25;;;;;;;15.67;3.70;;;5.00;99.90;;;;;;6526772;22;20750;-67
2024/04/22 06:48:54;;;;;;;19.50;4.13;;;5.00;99.90;;;;;;6527140;22;20587;-69
2024/04/22 06:51:20;;;;;;;10.80;2.43;;;5.10;99.90;;;;;;6527578;22;20775;-67
2024/04/22 06:53:49;;;;;;;6.53;2.73;;;5.20;99.90;;;;;;6523803;21;20561;-69
2024/04/22 06:56:15;;;;;;;5.43;2.30;;;5.20;99.90;;;;;;6526606;22;21028;-67
2024/04/22 06:58:46;;;;;;;3.00;2.17;;;5.30;99.90;;;;;;6533383;22;20500;-68
2024/04/22 07:01:12;;;;;;;1.90;1.37;;;5.40;99.90;;;;;;6535639;22;20457;-68
2024/04/22 07:03:41;;;;;;;23.17;2.73;;;5.40;99.90;;;;;;6532827;21;20522;-67
2024/04/22 07:06:09;;;;;;;4.13;1.80;;;5.50;99.90;;;;;;6531288;22;20468;-67
2024/04/22 07:08:38;;;;;;;5.67;2.90;;;5.60;99.90;;;;;;6528001;22;20452;-67
2024/04/22 07:11:04;;;;;;;4.00;2.20;;;5.60;99.90;;;;;;6527554;22;20505;-68
2024/04/22 07:13:33;;;;;;;4.67;2.50;;;5.70;99.90;;;;;;6526593;21;20445;-67
2024/04/22 07:16:02;;;;;;;2.77;1.87;;;5.80;99.90;;;;;;6524960;22;20457;-65
2024/04/22 07:18:31;;;;;;;2.30;2.10;;;6.00;99.90;;;;;;6527077;22;20457;-66
2024/04/22 07:20:57;;;;;;;2.23;2.00;;;6.20;99.90;;;;;;6527590;22;20453;-67
2024/04/22 07:23:25;;;;;;;4.77;1.90;;;6.50;99.90;;;;;;6525176;21;20457;-66
2024/04/22 07:25:52;;;;;;;6.47;2.53;;;6.70;99.90;;;;;;6526069;22;20589;-68
2024/04/22 07:28:21;;;;;;;2.93;2.50;;;6.90;99.90;;;;;;6527001;22;20941;-63
2024/04/22 07:30:47;;;;;;;2.60;2.20;;;7.20;99.90;;;;;;6526637;22;20452;-66
2024/04/22 07:33:20;;;;;;;5.83;2.37;;;7.50;99.90;;;;;;6527118;22;20779;-66
2024/04/22 07:35:48;;;;;;;2.30;2.03;;;7.80;99.90;;;;;;6526391;22;20457;-66
2024/04/22 07:38:21;;;;;;;2.80;2.03;;;8.00;99.90;;;;;;6527167;22;20452;-67
2024/04/22 07:40:48;;;;;;;2.90;1.87;;;8.20;99.90;;;;;;6527434;22;20456;-68
2024/04/22 07:43:16;;;;;;;6.03;2.50;;;8.30;99.90;;;;;;6527317;22;20512;-66
2024/04/22 07:45:59;;;;;;;9.47;2.50;;;8.40;99.90;;;;;;6545118;21;20562;-73
2024/04/22 07:48:44;;;;;;;36.80;7.67;;;8.40;99.90;;;;;;6580168;21;20522;-72
2024/04/22 07:51:10;;;;;;;78.27;10.30;;;8.30;99.90;;;;;;6579434;21;20463;-73
2024/04/22 07:53:39;;;;;;;15.80;3.50;;;8.10;99.90;;;;;;6572691;21;20455;-69
2024/04/22 07:56:12;;;;;;;31.13;4.50;;;8.00;99.90;;;;;;6525765;22;21222;-70
2024/04/22 07:58:41;;;;;;;8.00;2.73;;;8.00;99.90;;;;;;6526691;22;20505;-72
2024/04/22 08:01:08;;;;;;;8.97;2.70;;;8.00;99.90;;;;;;6526875;22;20509;-69
2024/04/22 08:03:40;;;;;;;11.33;3.10;;;8.20;99.90;;;;;;6526491;21;21063;-70
2024/04/22 08:06:10;;;;;;;8.70;2.43;;;8.40;99.90;;;;;;6525719;22;20453;-69
2024/04/22 08:08:41;;;;;;;4.60;1.70;;;8.50;99.90;;;;;;6526381;22;20452;-70
2024/04/22 08:11:07;;;;;;;5.20;2.20;;;8.60;99.90;;;;;;6526160;22;20495;-70
2024/04/22 08:13:36;;;;;;;5.43;3.00;;;8.70;99.90;;;;;;6526536;21;21014;-70
2024/04/22 08:16:03;;;;;;;5.50;1.70;;;8.90;99.90;;;;;;6526032;22;20746;-70
2024/04/22 08:18:33;;;;;;;5.90;1.53;;;9.00;99.10;;;;;;6526194;22;20458;-69
2024/04/22 08:21:02;;;;;;;4.00;1.77;;;9.00;98.40;;;;;;6526481;22;20775;-70
2024/04/22 08:23:33;;;;;;;3.10;2.00;;;9.10;97.90;;;;;;6525915;21;20449;-70
2024/04/22 08:25:59;;;;;;;2.17;1.47;;;9.20;97.70;;;;;;6525783;22;20457;-69
2024/04/22 08:28:28;;;;;;;3.67;1.77;;;9.50;97.50;;;;;;6526013;22;20810;-70
2024/04/22 08:31:00;;;;;;;2.13;1.90;;;10.00;95.20;;;;;;6526461;22;20512;-71
2024/04/22 08:33:28;;;;;;;1.90;1.70;;;10.50;92.80;;;;;;6526115;21;20524;-71
2024/04/22 08:35:56;;;;;;;2.90;1.43;;;10.70;91.10;;;;;;6525075;22;20457;-70
2024/04/22 08:38:28;;;;;;;3.53;1.40;;;10.50;90.50;;;;;;6526579;22;20799;-70
2024/04/22 08:40:55;;;;;;;1.73;1.50;;;10.10;90.30;;;;;;6526628;22;20699;-70
2024/04/22 08:43:24;;;;;;;2.10;1.27;;;9.80;91.30;;;;;;6525893;21;20456;-70
2024/04/22 08:45:50;;;;;;;1.37;1.23;;;9.40;91.10;;;;;;6525052;22;20472;-70
2024/04/22 08:48:19;;;;;;;3.10;1.60;;;9.20;92.30;;;;;;6525840;22;20513;-69
2024/04/22 08:50:49;;;;;;;3.73;1.80;;;9.10;92.80;;;;;;6526059;22;20453;-69
2024/04/22 08:53:18;;;;;;;5.70;1.47;;;9.20;93.50;;;;;;6525829;22;20770;-71
2024/04/22 08:55:47;;;;;;;3.37;1.47;;;9.50;93.30;;;;;;6524916;22;20452;-67
2024/04/22 08:58:21;;;;;;;2.73;1.73;;;10.40;92.70;;;;;;6525714;22;20576;-71
2024/04/22 09:00:47;;;;;;;5.23;1.60;;;11.60;90.80;;;;;;6526011;22;20468;-70
2024/04/22 09:03:16;;;;;;;3.07;1.70;;;12.30;82.80;;;;;;6525823;22;20465;-70
2024/04/22 09:05:42;;;;;;;3.03;2.00;;;12.50;80.50;;;;;;6525419;21;20464;-70
2024/04/22 09:08:12;;;;;;;3.17;2.03;;;12.80;77.50;;;;;;6525867;22;20472;-70
2024/04/22 09:10:38;;;;;;;4.63;2.23;;;13.40;75.40;;;;;;6525823;22;20922;-68
2024/04/22 09:13:10;;;;;;;2.33;1.73;;;14.00;72.20;;;;;;6525713;22;20457;-69
2024/04/22 09:15:36;;;;;;;2.80;1.60;;;14.60;67.80;;;;;;6524472;21;20464;-68
2024/04/22 09:18:05;;;;;;;2.90;1.20;;;15.20;66.80;;;;;;6525762;22;20465;-70
2024/04/22 09:20:34;;;;;;;6.00;2.23;;;15.50;66.70;;;;;;6525475;22;20580;-71
2024/04/22 09:23:03;;;;;;;3.07;1.90;;;16.10;66.50;;;;;;6525682;22;20456;-71
2024/04/22 09:25:31;;;;;;;2.13;1.40;;;16.30;61.90;;;;;;6524908;21;20578;-71
2024/04/22 09:28:00;;;;;;;1.80;1.40;;;15.50;62.60;;;;;;6525930;22;20460;-70
2024/04/22 09:30:38;;;;;;;2.07;1.53;;;14.50;63.00;;;;;;6525519;22;20449;-70
2024/04/22 09:33:11;;;;;;;1.83;1.57;;;13.40;67.80;;;;;;6526743;22;20566;-69
2024/04/22 09:35:39;;;;;;;4.60;1.43;;;12.40;67.90;;;;;;6527991;21;21076;-71
2024/04/22 09:38:07;;;;;;;5.70;1.50;;;11.60;69.80;;;;;;6528162;22;20453;-71
2024/04/22 09:40:34;;;;;;;1.53;1.33;;;10.80;70.50;;;;;;6528169;22;20501;-74
2024/04/22 09:43:03;;;;;;;2.10;1.33;;;10.10;73.30;;;;;;6527696;22;20906;-71
2024/04/22 09:45:32;;;;;;;7.30;1.97;;;9.70;78.80;;;;;;6527000;21;20468;-70
2024/04/22 09:48:02;;;;;;;3.20;1.63;;;9.20;83.20;;;;;;6528953;22;20968;-69
2024/04/22 09:50:30;;;;;;;2.23;1.73;;;8.90;88.40;;;;;;6528086;22;20504;-70
2024/04/22 09:53:01;;;;;;;2.97;1.40;;;8.60;92.70;;;;;;6528172;22;20501;-71
2024/04/22 09:55:30;;;;;;;2.53;1.47;;;8.40;95.70;;;;;;6526842;21;20464;-71
2024/04/22 09:58:01;;;;;;;5.13;1.40;;;8.20;97.90;;;;;;6527946;22;21041;-72
2024/04/22 10:00:27;;;;;;;6.93;1.97;;;8.00;99.90;;;;;;6527754;22;21011;-71
2024/04/22 10:02:59;;;;;;;2.87;1.90;;;7.80;99.90;;;;;;6527617;22;20456;-71
2024/04/22 10:05:27;;;;;;;2.57;1.57;;;7.60;99.90;;;;;;6526724;21;20472;-71
2024/04/22 10:07:56;;;;;;;3.00;2.10;;;7.50;99.90;;;;;;6527474;22;20460;-69
2024/04/22 10:10:22;;;;;;;2.50;1.53;;;7.40;99.90;;;;;;6527654;22;20452;-73
2024/04/22 10:12:51;;;;;;;4.53;1.63;;;7.30;99.90;;;;;;6527716;22;20502;-71
2024/04/22 10:15:19;;;;;;;5.10;1.97;;;7.40;99.90;;;;;;6526103;21;20457;-70
2024/04/22 10:17:45;;;;;;;3.00;1.83;;;7.50;99.90;;;;;;6527777;22;20459;-71
2024/04/22 10:20:17;;;;;;;2.03;1.50;;;7.60;99.90;;;;;;6527613;22;21070;-71
2024/04/22 10:22:43;;;;;;;2.03;1.73;;;8.00;99.90;;;;;;6528046;22;20461;-70
2024/04/22 10:25:19;;;;;;;3.70;2.30;;;8.50;99.90;;;;;;6526494;21;20501;-71
2024/04/22 10:27:45;;;;;;;2.50;2.00;;;8.90;99.90;;;;;;6527654;22;20925;-69
2024/04/22 10:30:14;;;;;;;3.37;2.27;;;9.20;99.90;;;;;;6527725;22;20456;-72
2024/04/22 10:32:40;;;;;;;3.37;2.17;;;9.50;99.90;;;;;;6526940;22;20501;-69
2024/04/22 10:35:09;;;;;;;3.73;2.27;;;9.80;99.90;;;;;;6526440;21;20531;-68
2024/04/22 10:37:38;;;;;;;5.27;2.20;;;10.00;99.90;;;;;;6527411;22;20750;-69
2024/04/22 10:40:08;;;;;;;3.67;2.58;;;10.20;99.90;;;;;;6524474;22;20380;-70
2024/04/22 10:42:35;;;;;;;2.53;2.20;;;10.30;99.90;;;;;;6526839;22;20779;-70
2024/04/22 10:45:04;;;;;;;2.03;1.70;;;10.40;99.90;;;;;;6525087;21;20511;-69
2024/04/22 10:47:30;;;;;;;2.53;1.60;;;10.20;99.90;;;;;;6527058;22;20471;-70
2024/04/22 10:49:58;;;;;;;4.07;2.37;;;9.70;99.90;;;;;;6526974;22;20456;-69
2024/04/22 10:52:24;;;;;;;2.40;1.73;;;9.30;99.90;;;;;;6526948;22;20511;-70
2024/04/22 10:54:56;;;;;;;3.20;2.10;;;8.70;99.90;;;;;;6526388;21;20526;-69
2024/04/22 10:57:22;;;;;;;4.40;2.17;;;8.10;99.90;;;;;;6527216;22;20468;-70
2024/04/22 10:59:52;;;;;;;3.17;1.70;;;7.70;99.90;;;;;;6527100;22;20470;-69
2024/04/22 11:02:18;;;;;;;2.97;1.50;;;7.40;99.90;;;;;;6527345;22;20453;-69
2024/04/22 11:04:46;;;;;;;5.53;2.23;;;7.20;99.90;;;;;;6525750;21;20472;-68
2024/04/22 11:07:14;;;;;;;1.97;1.77;;;7.00;99.90;;;;;;6518190;22;20465;-68
2024/04/22 11:09:42;;;;;;;3.70;2.57;;;7.00;99.90;;;;;;6519480;22;21053;-70
2024/04/22 11:12:14;;;;;;;3.40;2.13;;;7.00;99.90;;;;;;6518460;22;20445;-70
2024/04/22 11:14:43;;;;;;;12.13;2.63;;;7.10;99.90;;;;;;6520553;21;20509;-69
2024/04/22 11:17:12;;;;;;;2.93;1.57;;;7.10;99.90;;;;;;6525252;22;20452;-70
2024/04/22 11:19:41;;;;;;;2.90;1.60;;;7.20;99.90;;;;;;6530074;22;20468;-71
2024/04/22 11:22:07;;;;;;;2.63;1.80;;;7.20;99.90;;;;;;6531412;22;20546;-70
2024/04/22 11:24:36;;;;;;;3.07;2.20;;;7.40;99.90;;;;;;6530486;21;20527;-70
2024/04/22 11:27:02;;;;;;;2.90;2.40;;;7.50;99.90;;;;;;6531340;22;20501;-70
2024/04/22 11:29:34;;;;;;;1.90;1.60;;;7.60;99.90;;;;;;6530151;22;20449;-68
2024/04/22 11:32:01;;;;;;;2.53;1.83;;;7.90;99.90;;;;;;6531209;22;20513;-69
2024/04/22 11:34:32;;;;;;;2.23;2.00;;;8.10;99.90;;;;;;6534213;21;20465;-69
2024/04/22 11:37:01;;;;;;;4.50;1.97;;;8.60;99.90;;;;;;6536024;22;20517;-69
2024/04/22 11:39:30;;;;;;;3.63;1.87;;;8.20;99.90;;;;;;6535813;22;20484;-70
2024/04/22 11:41:56;;;;;;;2.50;1.97;;;8.10;99.90;;;;;;6535013;22;20889;-68
2024/04/22 11:44:25;;;;;;;2.03;1.67;;;7.90;99.90;;;;;;6533769;21;20471;-69
2024/04/22 11:46:54;;;;;;;2.47;1.73;;;7.70;99.90;;;;;;6534064;22;21029;-70
2024/04/22 11:49:23;;;;;;;4.83;2.20;;;7.60;99.90;;;;;;6532036;22;20457;-69
2024/04/22 11:51:49;;;;;;;2.80;2.00;;;7.50;99.90;;;;;;6526962;22;20468;-69
2024/04/22 11:54:18;;;;;;;2.67;1.90;;;7.50;99.90;;;;;;6525374;21;20508;-70
2024/04/22 11:56:44;;;;;;;3.60;2.00;;;7.50;99.90;;;;;;6526348;22;20524;-69
2024/04/22 11:59:15;;;;;;;4.70;1.90;;;7.50;99.90;;;;;;6526191;22;20456;-69
2024/04/22 12:01:41;;;;;;;1.40;1.30;;;7.60;99.90;;;;;;6526435;22;21010;-69
2024/04/22 12:04:13;;;;;;;1.93;1.50;;;7.60;99.90;;;;;;6525862;21;20476;-70
2024/04/22 12:06:43;;;;;;;3.00;2.00;;;7.80;99.90;;;;;;6525563;22;20510;-69
2024/04/22 12:09:12;;;;;;;3.10;1.53;;;7.80;99.90;;;;;;6526283;22;20496;-69
2024/04/22 12:11:38;;;;;;;7.27;3.53;;;7.90;99.90;;;;;;6526679;22;20580;-69
2024/04/22 12:14:07;;;;;;;3.10;2.40;;;8.00;99.90;;;;;;6525284;21;20460;-69
2024/04/22 12:16:33;;;;;;;2.50;2.10;;;8.10;99.90;;;;;;6525376;22;20922;-69
2024/04/22 12:19:02;;;;;;;5.50;2.60;;;8.10;99.90;;;;;;6525947;22;20515;-68
2024/04/22 12:21:30;;;;;;;7.43;2.57;;;8.10;99.90;;;;;;6525439;22;20509;-69
2024/04/22 12:23:59;;;;;;;3.87;2.40;;;8.20;99.90;;;;;;6525410;21;20468;-70
2024/04/22 12:26:25;;;;;;;4.20;3.20;;;8.30;99.90;;;;;;6524536;22;20525;-69
2024/04/22 12:28:53;;;;;;;4.17;2.97;;;8.40;99.90;;;;;;6525293;22;20970;-70
2024/04/22 12:31:20;;;;;;;6.90;2.87;;;8.50;99.90;;;;;;6525889;22;20495;-69
2024/04/22 12:33:48;;;;;;;3.97;3.13;;;8.60;99.90;;;;;;6525313;21;20468;-69
2024/04/22 12:36:14;;;;;;;3.30;2.50;;;8.60;99.90;;;;;;6525388;22;20500;-69
2024/04/22 12:38:46;;;;;;;3.70;2.70;;;8.60;99.90;;;;;;6525877;22;20460;-70
2024/04/22 12:41:12;;;;;;;3.30;1.60;;;8.70;99.90;;;;;;6525837;22;20564;-70
2024/04/22 12:43:40;;;;;;;3.00;2.20;;;8.60;99.90;;;;;;6527107;21;20495;-70
2024/04/22 12:46:06;;;;;;;3.67;2.20;;;8.50;99.90;;;;;;6525122;22;20832;-69
2024/04/22 12:51:19;;;;;;;4.80;2.30;;;8.30;99.90;;;;;;6529043;22;20508;-69
2024/04/22 12:53:51;;;;;;;3.73;2.53;;;8.10;99.90;;;;;;6525156;21;21114;-71
2024/04/22 12:56:19;;;;;;;3.30;1.80;;;8.00;99.90;;;;;;6524211;22;20954;-70
2024/04/22 12:58:45;;;;;;;5.00;2.30;;;7.90;99.90;;;;;;6525215;22;20811;-69
2024/04/22 13:01:14;;;;;;;3.40;2.40;;;7.80;99.90;;;;;;6525683;22;20500;-70
2024/04/22 13:03:43;;;;;;;4.63;2.33;;;7.80;99.90;;;;;;6525527;21;21041;-70
2024/04/22 13:06:12;;;;;;;3.57;2.37;;;7.90;99.90;;;;;;6524940;22;20949;-69
2024/04/22 13:08:41;;;;;;;3.40;2.07;;;8.00;99.90;;;;;;6527568;22;20977;-70